Time;durP1;ratioP1;P1;durP2;ratioP2;P2;SDS_P1;SDS_P2;PMS_P1;PMS_P2;Temp;Humidity;BMP_temperature;BMP_pressure;BME280_temperature;BME280_humidity;BME280_pressure;Samples;Min_cycle;Max_cycle;Signal;HPM_P1;HPM_P2
2022/03/25 00:01:46;;;;;;;;;;;;;;;3.18;40.25;99247.06;5071632;28;19963;-69
2022/03/25 00:04:11;;;;;;;;;;;;;;;3.24;40.22;99238.44;5071754;28;19924;-63
2022/03/25 00:06:37;;;;;;;;;;;;;;;3.29;39.98;99237.84;5071263;28;20328;-62
2022/03/25 00:09:02;;;;;;;;;;;;;;;3.30;40.39;99235.03;5071772;28;19951;-64
2022/03/25 00:11:28;;;;;;;;;;;;;;;3.24;40.62;99240.25;5071639;28;19928;-63
2022/03/25 00:13:54;;;;;;;;;;;;;;;3.19;40.68;99239.00;5070064;28;20018;-63
2022/03/25 00:16:19;;;;;;;;;;;;;;;3.10;40.61;99240.16;5072041;28;19929;-65
2022/03/25 00:18:44;;;;;;;;;;;;;;;3.12;40.49;99232.13;5071546;28;19924;-63
2022/03/25 00:21:10;;;;;;;;;;;;;;;3.13;41.06;99231.13;5071626;28;19928;-63
2022/03/25 00:23:36;;;;;;;;;;;;;;;3.21;40.80;99238.00;5071017;28;19928;-63
2022/03/25 00:26:01;;;;;;;;;;;;;;;3.23;41.45;99234.19;5066824;28;19928;-65
2022/03/25 00:28:27;;;;;;;;;;;;;;;3.23;41.29;99234.19;5090328;28;19990;-66
2022/03/25 00:30:53;;;;;;;;;;;;;;;3.19;41.04;99231.16;5091585;28;19928;-66
2022/03/25 00:33:19;;;;;;;;;;;;;;;3.18;40.95;99229.53;5091595;28;20403;-66
2022/03/25 00:35:45;;;;;;;;;;;;;;;3.19;41.12;99227.72;5077365;28;19943;-65
2022/03/25 00:38:11;;;;;;;;;;;;;;;3.19;41.25;99228.53;5070119;28;19924;-67
2022/03/25 00:40:36;;;;;;;;;;;;;;;3.22;41.09;99227.34;5071751;28;19978;-69
2022/03/25 00:43:02;;;;;;;;;;;;;;;3.27;41.23;99229.38;5073979;28;20646;-69
2022/03/25 00:45:29;;;;;;;;;;;;;;;3.31;41.53;99214.88;5057803;28;19928;-69
2022/03/25 00:47:56;;;;;;;;;;;;;;;3.33;41.40;99211.06;5074379;28;19932;-70
2022/03/25 00:50:23;;;;;;;;;;;;;;;3.33;41.49;99218.13;5057184;28;20362;-69
2022/03/25 00:52:50;;;;;;;;;;;;;;;3.30;41.84;99219.31;5074738;28;20373;-71
2022/03/25 00:55:15;;;;;;;;;;;;;;;3.24;41.91;99216.69;5074340;28;19928;-72
2022/03/25 00:57:41;;;;;;;;;;;;;;;3.22;41.85;99218.69;5073290;28;20313;-70
2022/03/25 01:00:07;;;;;;;;;;;;;;;3.19;42.04;99212.81;5053420;28;19929;-71
2022/03/25 01:02:34;;;;;;;;;;;;;;;3.15;42.32;99210.78;5054488;28;19932;-69
2022/03/25 01:04:59;;;;;;;;;;;;;;;3.17;42.31;99219.25;5071959;28;20178;-71
2022/03/25 01:07:25;;;;;;;;;;;;;;;3.14;42.68;99220.44;5074247;28;20011;-70
2022/03/25 01:09:51;;;;;;;;;;;;;;;3.08;43.19;99217.78;5074232;28;20065;-69
2022/03/25 01:12:17;;;;;;;;;;;;;;;3.03;43.10;99215.75;5074383;28;19928;-70
2022/03/25 01:14:45;;;;;;;;;;;;;;;2.99;43.07;99217.13;5056282;28;20432;-71
2022/03/25 01:17:13;;;;;;;;;;;;;;;3.00;43.15;99220.53;5056258;28;19928;-70
2022/03/25 01:19:38;;;;;;;;;;;;;;;2.98;43.09;99225.19;5072696;28;19924;-70
2022/03/25 01:22:05;;;;;;;;;;;;;;;2.96;43.30;99212.28;5074337;28;19964;-71
2022/03/25 01:24:30;;;;;;;;;;;;;;;2.99;43.38;99222.38;5074403;28;19925;-70
2022/03/25 01:26:56;;;;;;;;;;;;;;;2.97;43.20;99224.34;5072921;28;19932;-70
2022/03/25 01:29:22;;;;;;;;;;;;;;;3.00;42.80;99229.25;5074343;28;19924;-70
2022/03/25 01:31:48;;;;;;;;;;;;;;;3.01;43.00;99230.03;5072578;28;20389;-70
2022/03/25 01:34:16;;;;;;;;;;;;;;;3.03;43.07;99231.47;5076828;28;19924;-71
2022/03/25 01:36:41;;;;;;;;;;;;;;;3.10;42.97;99231.50;5092701;28;19935;-71
2022/03/25 01:39:08;;;;;;;;;;;;;;;3.11;43.09;99241.78;5092329;28;19924;-71
2022/03/25 01:41:33;;;;;;;;;;;;;;;3.14;43.25;99236.16;5092635;28;19955;-69
2022/03/25 01:44:00;;;;;;;;;;;;;;;3.19;42.95;99232.97;5093688;28;19966;-63
2022/03/25 01:46:26;;;;;;;;;;;;;;;3.25;42.94;99239.25;5092563;28;19937;-69
2022/03/25 01:48:52;;;;;;;;;;;;;;;3.27;42.80;99238.06;5093950;28;19924;-69
2022/03/25 01:51:23;;;;;;;;;;;;;;;3.32;42.71;99238.25;5075489;28;19977;-68
2022/03/25 01:53:49;;;;;;;;;;;;;;;3.32;42.94;99243.50;5074218;28;20112;-67
2022/03/25 01:56:20;;;;;;;;;;;;;;;3.34;42.93;99241.50;5092274;28;19928;-64
2022/03/25 01:58:48;;;;;;;;;;;;;;;3.33;43.15;99247.75;5080610;28;19924;-68
2022/03/25 02:01:14;;;;;;;;;;;;;;;3.29;43.18;99248.31;5080061;28;19954;-64
2022/03/25 02:03:40;;;;;;;;;;;;;;;3.25;43.42;99247.91;5082431;28;19931;-65
2022/03/25 02:06:06;;;;;;;;;;;;;;;3.26;43.66;99240.84;5093247;28;19929;-66
2022/03/25 02:08:31;;;;;;;;;;;;;;;3.27;43.82;99242.47;5088129;28;19939;-64
2022/03/25 02:10:58;;;;;;;;;;;;;;;3.34;44.13;99243.31;5071647;28;19928;-66
2022/03/25 02:13:24;;;;;;;;;;;;;;;3.34;43.74;99249.34;5038432;28;20312;-67
2022/03/25 02:15:55;;;;;;;;;;;;;;;3.37;43.48;99241.09;5055001;28;19975;-66
2022/03/25 02:18:21;;;;;;;;;;;;;;;3.41;43.60;99252.84;5071682;28;19931;-68
2022/03/25 02:20:49;;;;;;;;;;;;;;;3.47;43.56;99251.25;5077651;28;19928;-68
2022/03/25 02:23:17;;;;;;;;;;;;;;;3.49;43.38;99259.72;5087521;28;20404;-69
2022/03/25 02:25:44;;;;;;;;;;;;;;;3.45;43.55;99260.31;5038151;28;19967;-68
2022/03/25 02:28:10;;;;;;;;;;;;;;;3.38;43.54;99260.25;5050246;28;20006;-69
2022/03/25 02:30:37;;;;;;;;;;;;;;;3.31;43.47;99255.00;5075432;28;19932;-69
2022/03/25 02:33:04;;;;;;;;;;;;;;;3.25;43.83;99265.44;5062979;28;20035;-68
2022/03/25 02:35:37;;;;;;;;;;;;;;;3.19;44.32;99262.56;5065714;28;19959;-68
2022/03/25 02:38:03;;;;;;;;;;;;;;;3.14;44.57;99259.72;5071856;28;20382;-68
2022/03/25 02:40:29;;;;;;;;;;;;;;;3.14;44.60;99264.16;5090288;28;19928;-69
2022/03/25 02:42:54;;;;;;;;;;;;;;;3.13;44.64;99268.59;5092249;28;19946;-68
2022/03/25 02:45:21;;;;;;;;;;;;;;;3.17;44.30;99274.25;5058137;28;20319;-70
2022/03/25 02:47:46;;;;;;;;;;;;;;;3.08;44.95;99270.97;5036560;28;19936;-69
2022/03/25 02:50:12;;;;;;;;;;;;;;;3.12;44.72;99274.03;5071935;28;19933;-68
2022/03/25 02:52:37;;;;;;;;;;;;;;;3.12;44.86;99266.97;5073313;28;19924;-67
2022/03/25 02:55:03;;;;;;;;;;;;;;;3.10;44.85;99266.34;5054712;28;19928;-68
2022/03/25 02:57:28;;;;;;;;;;;;;;;3.10;44.73;99274.22;5086983;28;20020;-70
2022/03/25 02:59:54;;;;;;;;;;;;;;;3.11;44.88;99275.81;5087002;28;19932;-69
2022/03/25 03:02:20;;;;;;;;;;;;;;;3.17;44.69;99279.47;5085500;28;20333;-71
2022/03/25 03:04:45;;;;;;;;;;;;;;;3.21;44.61;99277.28;5091969;28;20388;-70
2022/03/25 03:07:11;;;;;;;;;;;;;;;3.14;44.93;99278.06;5069737;28;20351;-71
2022/03/25 03:09:37;;;;;;;;;;;;;;;3.17;44.62;99276.88;5083238;28;19928;-70
2022/03/25 03:12:03;;;;;;;;;;;;;;;3.18;44.78;99281.13;5088611;28;19928;-67
2022/03/25 03:14:28;;;;;;;;;;;;;;;3.16;44.83;99281.28;5083425;28;19931;-66
2022/03/25 03:16:54;;;;;;;;;;;;;;;3.15;44.80;99276.28;5080318;28;20330;-66
2022/03/25 03:19:19;;;;;;;;;;;;;;;3.14;44.99;99274.63;5092001;28;19947;-65
2022/03/25 03:21:45;;;;;;;;;;;;;;;3.09;45.05;99277.84;5091788;28;19990;-66
2022/03/25 03:24:10;;;;;;;;;;;;;;;3.11;45.08;99269.78;5083500;28;19993;-64
2022/03/25 03:26:36;;;;;;;;;;;;;;;3.14;45.21;99272.81;5071768;28;19933;-65
2022/03/25 03:29:02;;;;;;;;;;;;;;;3.22;45.30;99269.25;5077420;28;19931;-67
2022/03/25 03:31:28;;;;;;;;;;;;;;;3.23;45.27;99270.06;5090674;28;19928;-66
2022/03/25 03:33:53;;;;;;;;;;;;;;;3.31;45.71;99273.31;5091573;28;19947;-65
2022/03/25 03:36:19;;;;;;;;;;;;;;;3.31;45.52;99275.16;5089623;28;20016;-66
2022/03/25 03:38:44;;;;;;;;;;;;;;;3.31;45.06;99275.94;5091592;28;19930;-65
2022/03/25 03:41:10;;;;;;;;;;;;;;;3.35;45.23;99271.13;5090598;28;19935;-65
2022/03/25 03:43:35;;;;;;;;;;;;;;;3.38;45.32;99286.47;5090369;28;19924;-64
2022/03/25 03:46:00;;;;;;;;;;;;;;;3.35;45.49;99278.97;5090358;28;20022;-66
2022/03/25 03:48:26;;;;;;;;;;;;;;;3.40;45.24;99277.41;5088943;28;21605;-64
2022/03/25 03:50:51;;;;;;;;;;;;;;;3.47;45.06;99272.22;5072643;28;20277;-64
2022/03/25 03:53:17;;;;;;;;;;;;;;;3.58;45.23;99276.88;5071791;28;19931;-63
2022/03/25 03:55:42;;;;;;;;;;;;;;;3.57;45.46;99277.91;5070203;28;19974;-62
2022/03/25 03:58:09;;;;;;;;;;;;;;;3.60;44.87;99272.28;5089057;28;19928;-65
2022/03/25 04:00:34;;;;;;;;;;;;;;;3.68;44.54;99278.34;5084244;28;19936;-63
2022/03/25 04:03:00;;;;;;;;;;;;;;;3.77;44.45;99270.13;5072749;28;19929;-64
2022/03/25 04:05:25;;;;;;;;;;;;;;;3.73;44.46;99283.81;5072523;28;20266;-64
2022/03/25 04:07:51;;;;;;;;;;;;;;;3.75;44.49;99277.38;5072598;28;19974;-64
2022/03/25 04:10:17;;;;;;;;;;;;;;;3.79;44.59;99283.84;5091612;28;20300;-64
2022/03/25 04:12:43;;;;;;;;;;;;;;;3.77;44.67;99283.25;5091535;28;19973;-65
2022/03/25 04:15:09;;;;;;;;;;;;;;;3.69;44.99;99287.84;5074593;28;20393;-65
2022/03/25 04:17:36;;;;;;;;;;;;;;;3.68;44.97;99279.16;5085836;28;20529;-64
2022/03/25 04:20:02;;;;;;;;;;;;;;;3.70;45.06;99271.91;5080908;28;20002;-67
2022/03/25 04:22:28;;;;;;;;;;;;;;;3.81;44.83;99267.91;5075118;28;20350;-66
2022/03/25 04:24:57;;;;;;;;;;;;;;;3.89;44.66;99280.06;5085962;28;19928;-62
2022/03/25 04:27:23;;;;;;;;;;;;;;;3.92;44.83;99280.47;5094695;28;19931;-65
2022/03/25 04:29:49;;;;;;;;;;;;;;;3.93;44.80;99283.91;5076547;28;19935;-66
2022/03/25 04:32:14;;;;;;;;;;;;;;;3.88;44.49;99281.84;5077104;28;19924;-65
2022/03/25 04:34:40;;;;;;;;;;;;;;;3.92;44.29;99279.66;5084794;28;20007;-70
2022/03/25 04:37:05;;;;;;;;;;;;;;;3.96;44.45;99280.88;5073966;28;20328;-71
2022/03/25 04:39:31;;;;;;;;;;;;;;;4.03;43.87;99279.91;5083201;28;19924;-69
2022/03/25 04:41:57;;;;;;;;;;;;;;;4.10;44.16;99291.22;5084969;28;20404;-72
2022/03/25 04:44:22;;;;;;;;;;;;;;;4.13;44.45;99283.97;5056601;28;20033;-68
2022/03/25 04:46:48;;;;;;;;;;;;;;;4.15;44.22;99288.00;5075600;28;20393;-70
2022/03/25 04:49:14;;;;;;;;;;;;;;;4.16;44.22;99287.00;5075379;28;19960;-62
2022/03/25 04:51:40;;;;;;;;;;;;;;;4.20;44.24;99290.03;5074643;28;19928;-64
2022/03/25 04:54:05;;;;;;;;;;;;;;;4.26;44.30;99290.03;5074287;28;20296;-69
2022/03/25 04:56:33;;;;;;;;;;;;;;;4.26;44.29;99286.59;5073846;28;19935;-68
2022/03/25 04:58:59;;;;;;;;;;;;;;;4.27;44.15;99291.66;5090146;28;19924;-67
2022/03/25 05:01:25;;;;;;;;;;;;;;;4.36;43.93;99294.91;5094449;28;20393;-63
2022/03/25 05:03:50;;;;;;;;;;;;;;;4.36;43.87;99289.66;5081013;28;19927;-61
2022/03/25 05:06:16;;;;;;;;;;;;;;;4.38;43.92;99289.44;5094349;28;19928;-63
2022/03/25 05:08:41;;;;;;;;;;;;;;;4.47;44.46;99289.09;5083146;28;20408;-63
2022/03/25 05:11:07;;;;;;;;;;;;;;;4.50;44.18;99295.72;5067178;28;20400;-60
2022/03/25 05:13:33;;;;;;;;;;;;;;;4.64;44.08;99297.38;5071387;28;19925;-62
2022/03/25 05:15:58;;;;;;;;;;;;;;;4.72;43.50;99299.00;5068834;28;19928;-65
2022/03/25 05:18:24;;;;;;;;;;;;;;;4.80;43.38;99290.94;5071523;28;19928;-66
2022/03/25 05:20:50;;;;;;;;;;;;;;;4.76;43.52;99292.31;5067481;28;19935;-65
2022/03/25 05:23:16;;;;;;;;;;;;;;;4.81;43.01;99294.34;5072428;28;19924;-65
2022/03/25 05:25:41;;;;;;;;;;;;;;;4.88;43.57;99295.97;5053748;28;19933;-64
2022/03/25 05:28:06;;;;;;;;;;;;;;;4.94;43.12;99303.03;5071453;28;19935;-63
2022/03/25 05:30:32;;;;;;;;;;;;;;;5.10;43.05;99293.13;5071208;28;19928;-62
2022/03/25 05:32:58;;;;;;;;;;;;;;;5.12;42.69;99302.44;5071616;28;20398;-66
2022/03/25 05:35:25;;;;;;;;;;;;;;;5.22;43.38;99292.28;5074337;28;19928;-62
2022/03/25 05:37:50;;;;;;;;;;;;;;;5.27;42.34;99291.69;5037531;28;19931;-62
2022/03/25 05:40:16;;;;;;;;;;;;;;;5.37;42.39;99297.31;5050571;28;19932;-60
2022/03/25 05:42:42;;;;;;;;;;;;;;;5.50;42.24;99299.13;5052957;28;20002;-64
2022/03/25 05:45:08;;;;;;;;;;;;;;;5.70;42.18;99299.84;5070771;28;19976;-65
2022/03/25 05:47:34;;;;;;;;;;;;;;;5.61;42.23;99295.84;5071836;28;19924;-65
2022/03/25 05:49:59;;;;;;;;;;;;;;;5.80;42.10;99294.16;5071491;28;19924;-60
2022/03/25 05:52:25;;;;;;;;;;;;;;;5.89;41.56;99294.75;5085295;28;20562;-62
2022/03/25 05:54:51;;;;;;;;;;;;;;;6.00;41.76;99302.03;5071492;28;19928;-63
2022/03/25 05:57:16;;;;;;;;;;;;;;;6.11;40.55;99298.69;5060188;28;20068;-66
2022/03/25 05:59:43;;;;;;;;;;;;;;;6.09;41.91;99305.22;5072006;28;20414;-65
2022/03/25 06:02:08;;;;;;;;;;;;;;;6.14;41.97;99300.09;5081758;28;19924;-62
2022/03/25 06:04:34;;;;;;;;;;;;;;;6.20;41.55;99306.34;5068228;28;19931;-63
2022/03/25 06:07:03;;;;;;;;;;;;;;;6.18;41.11;99303.94;5035323;28;20032;-63
2022/03/25 06:09:34;;;;;;;;;;;;;;;6.09;40.73;99305.22;5017282;28;19978;-64
2022/03/25 06:12:00;;;;;;;;;;;;;;;6.12;40.80;99299.53;5066154;28;20034;-63
2022/03/25 06:14:26;;;;;;;;;;;;;;;6.26;41.36;99302.88;5088390;28;19924;-63
2022/03/25 06:16:51;;;;;;;;;;;;;;;6.30;40.99;99309.34;5085191;28;19932;-64
2022/03/25 06:19:17;;;;;;;;;;;;;;;6.38;40.46;99314.34;5069217;28;19968;-64
2022/03/25 06:21:43;;;;;;;;;;;;;;;6.40;40.74;99308.88;5070353;28;19928;-63
2022/03/25 06:24:09;;;;;;;;;;;;;;;6.50;40.81;99317.13;5069813;28;19924;-62
2022/03/25 06:26:34;;;;;;;;;;;;;;;6.56;40.51;99318.94;5086529;28;19933;-64
2022/03/25 06:29:00;;;;;;;;;;;;;;;6.64;40.28;99312.56;5089905;28;20026;-64
2022/03/25 06:31:25;;;;;;;;;;;;;;;6.76;40.03;99313.50;5089065;28;19928;-64
2022/03/25 06:33:51;;;;;;;;;;;;;;;6.76;39.90;99322.19;5080696;28;20063;-64
2022/03/25 06:36:16;;;;;;;;;;;;;;;6.85;40.12;99312.22;5072150;28;20421;-64
2022/03/25 06:38:43;;;;;;;;;;;;;;;7.12;39.23;99318.09;5068739;28;19978;-65
2022/03/25 06:41:09;;;;;;;;;;;;;;;7.33;38.71;99326.63;5067917;28;20427;-61
2022/03/25 06:43:34;;;;;;;;;;;;;;;7.50;38.57;99323.19;5070918;28;19931;-62
2022/03/25 06:46:00;;;;;;;;;;;;;;;7.69;38.65;99316.09;5087133;28;19928;-61
2022/03/25 06:48:26;;;;;;;;;;;;;;;7.84;38.11;99328.91;5087798;28;19924;-62
2022/03/25 06:50:51;;;;;;;;;;;;;;;7.82;38.18;99324.88;5089360;28;20445;-62
2022/03/25 06:53:17;;;;;;;;;;;;;;;7.76;37.91;99331.03;5075121;28;19935;-61
2022/03/25 06:55:44;;;;;;;;;;;;;;;7.76;38.53;99326.56;5071984;28;19971;-64
2022/03/25 06:58:10;;;;;;;;;;;;;;;7.86;37.63;99326.06;5072547;28;19929;-64
2022/03/25 07:00:35;;;;;;;;;;;;;;;7.92;37.48;99320.69;5069607;28;19954;-62
2022/03/25 07:03:01;;;;;;;;;;;;;;;8.01;37.07;99326.50;5068378;28;19994;-64
2022/03/25 07:05:30;;;;;;;;;;;;;;;8.06;37.34;99326.63;5070634;28;20368;-62
2022/03/25 07:07:56;;;;;;;;;;;;;;;8.18;37.31;99334.59;5054640;28;19970;-63
2022/03/25 07:10:23;;;;;;;;;;;;;;;8.29;36.83;99330.38;5089173;28;19928;-61
2022/03/25 07:12:50;;;;;;;;;;;;;;;8.36;36.66;99328.47;5051759;28;19925;-62
2022/03/25 07:15:16;;;;;;;;;;;;;;;8.36;37.00;99329.28;5071708;28;19974;-63
2022/03/25 07:17:43;;;;;;;;;;;;;;;8.34;36.94;99330.53;5051884;28;19924;-62
2022/03/25 07:20:13;;;;;;;;;;;;;;;8.47;37.11;99332.22;5068162;28;20282;-62
2022/03/25 07:22:39;;;;;;;;;;;;;;;8.62;36.29;99337.91;5069398;28;19975;-61
2022/03/25 07:25:04;;;;;;;;;;;;;;;8.64;36.33;99338.47;5068970;28;19951;-62
2022/03/25 07:27:30;;;;;;;;;;;;;;;8.73;36.26;99331.03;5069274;28;20367;-62
2022/03/25 07:29:56;;;;;;;;;;;;;;;8.71;35.93;99341.84;5072087;28;19929;-62
2022/03/25 07:32:21;;;;;;;;;;;;;;;8.85;36.22;99337.97;5069500;28;19927;-61
2022/03/25 07:34:47;;;;;;;;;;;;;;;9.18;35.40;99333.19;5069829;28;20072;-62
2022/03/25 07:37:12;;;;;;;;;;;;;;;9.49;35.24;99337.28;5073497;28;19943;-63
2022/03/25 07:39:38;;;;;;;;;;;;;;;9.62;34.68;99334.41;5068582;28;20061;-61
2022/03/25 07:42:04;;;;;;;;;;;;;;;9.46;34.87;99335.13;5051905;28;19935;-62
2022/03/25 07:44:31;;;;;;;;;;;;;;;9.64;35.10;99332.31;5075699;28;20425;-64
2022/03/25 07:47:03;;;;;;;;;;;;;;;9.81;34.25;99336.91;5088853;28;20423;-63
2022/03/25 07:49:47;;;;;;;;;;;;;;;9.66;34.30;99338.19;5035942;28;19979;-62
2022/03/25 07:52:14;;;;;;;;;;;;;;;9.60;34.34;99333.03;5047700;28;19925;-61
2022/03/25 07:54:39;;;;;;;;;;;;;;;9.61;34.24;99339.94;5063831;28;19954;-63
2022/03/25 07:57:05;;;;;;;;;;;;;;;9.68;35.31;99338.78;5071740;28;19928;-62
2022/03/25 07:59:30;;;;;;;;;;;;;;;9.75;35.00;99328.84;5073820;28;19925;-62
2022/03/25 08:01:56;;;;;;;;;;;;;;;9.80;35.02;99336.13;5074266;28;19928;-62
2022/03/25 08:04:24;;;;;;;;;;;;;;;9.86;34.83;99331.72;5073064;28;19989;-64
2022/03/25 08:06:53;;;;;;;;;;;;;;;10.00;34.80;99333.88;5073352;28;19929;-63
2022/03/25 08:09:18;;;;;;;;;;;;;;;10.22;34.41;99330.59;5073915;28;19924;-62
2022/03/25 08:11:47;;;;;;;;;;;;;;;10.44;33.91;99333.38;5070229;28;19928;-62
2022/03/25 08:14:16;;;;;;;;;;;;;;;10.55;33.86;99324.59;5074483;28;20117;-62
2022/03/25 08:16:45;;;;;;;;;;;;;;;10.57;33.43;99325.16;5084290;28;19973;-61
2022/03/25 08:19:11;;;;;;;;;;;;;;;10.49;33.33;99325.53;5094200;28;19985;-61
2022/03/25 08:21:37;;;;;;;;;;;;;;;10.48;33.70;99328.44;5072898;28;19932;-63
2022/03/25 08:29:30;;;;;;;;;;;;;;;11.26;33.01;99330.22;5069419;28;19925;-62
2022/03/25 08:31:56;;;;;;;;;;;;;;;11.47;32.39;99323.38;5071879;28;19974;-62
2022/03/25 08:34:22;;;;;;;;;;;;;;;11.59;32.89;99318.75;5073669;28;19924;-62
2022/03/25 08:36:48;;;;;;;;;;;;;;;11.68;32.26;99326.31;5072020;28;19932;-61
2022/03/25 08:39:13;;;;;;;;;;;;;;;11.70;31.93;99316.22;5073316;28;19960;-65
2022/03/25 08:41:39;;;;;;;;;;;;;;;11.63;32.25;99319.06;5056246;28;19967;-61
2022/03/25 08:44:06;;;;;;;;;;;;;;;11.64;32.62;99325.19;5074395;28;19924;-64
2022/03/25 08:46:33;;;;;;;;;;;;;;;11.70;32.14;99324.19;5072016;28;19932;-63
2022/03/25 08:48:59;;;;;;;;;;;;;;;11.67;32.38;99322.03;5074567;28;19931;-63
2022/03/25 08:51:25;;;;;;;;;;;;;;;11.55;32.84;99322.94;5073131;28;19929;-62
2022/03/25 08:53:50;;;;;;;;;;;;;;;11.40;32.20;99322.75;5071956;28;19924;-61
2022/03/25 08:56:16;;;;;;;;;;;;;;;11.33;32.73;99320.25;5073155;28;19928;-64
2022/03/25 08:58:42;;;;;;;;;;;;;;;11.33;32.70;99317.59;5082990;28;20316;-61
2022/03/25 09:01:07;;;;;;;;;;;;;;;11.28;32.63;99311.44;5087267;28;19939;-64
2022/03/25 09:03:33;;;;;;;;;;;;;;;11.13;33.55;99314.66;5091200;28;19924;-61
2022/03/25 09:05:58;;;;;;;;;;;;;;;11.18;32.88;99313.91;5086013;28;19928;-63
2022/03/25 09:08:24;;;;;;;;;;;;;;;11.09;32.67;99321.50;5089769;28;20304;-62
2022/03/25 09:10:50;;;;;;;;;;;;;;;11.20;33.45;99325.91;5077811;28;20285;-63
2022/03/25 09:13:17;;;;;;;;;;;;;;;11.31;32.38;99318.91;5084579;28;19931;-64
2022/03/25 09:15:42;;;;;;;;;;;;;;;11.32;33.14;99313.34;5062476;28;19994;-63
2022/03/25 09:18:08;;;;;;;;;;;;;;;11.42;32.51;99309.25;5091032;28;20428;-64
2022/03/25 09:20:33;;;;;;;;;;;;;;;11.28;32.45;99308.78;5086996;28;20450;-62
2022/03/25 09:22:59;;;;;;;;;;;;;;;11.27;33.06;99313.28;5071981;28;19950;-64
2022/03/25 09:25:24;;;;;;;;;;;;;;;11.17;32.67;99302.50;5069338;28;20285;-63
2022/03/25 09:27:50;;;;;;;;;;;;;;;11.11;33.43;99295.50;5054161;28;19932;-62
2022/03/25 09:30:16;;;;;;;;;;;;;;;11.04;32.88;99301.00;5068593;28;19928;-64
2022/03/25 09:32:42;;;;;;;;;;;;;;;11.10;33.13;99296.56;5069840;28;19924;-63
2022/03/25 09:35:13;;;;;;;;;;;;;;;11.16;32.93;99302.75;5073676;28;20027;-62
2022/03/25 09:37:39;;;;;;;;;;;;;;;11.18;33.23;99298.81;5087649;28;19931;-60
2022/03/25 09:40:06;;;;;;;;;;;;;;;11.05;33.38;99299.13;5091502;28;20096;-60
2022/03/25 09:42:35;;;;;;;;;;;;;;;11.02;33.85;99296.97;5076554;28;20283;-63
2022/03/25 09:45:01;;;;;;;;;;;;;;;10.94;33.67;99300.03;5071383;28;19928;-63
2022/03/25 09:47:30;;;;;;;;;;;;;;;10.90;33.68;99297.06;5086491;28;19971;-63
2022/03/25 09:49:56;;;;;;;;;;;;;;;10.91;34.14;99296.00;5091311;28;20389;-63
2022/03/25 09:52:21;;;;;;;;;;;;;;;10.86;34.68;99295.94;5090970;28;19930;-62
2022/03/25 09:54:47;;;;;;;;;;;;;;;10.82;34.05;99295.59;5081962;28;19932;-64
2022/03/25 09:57:12;;;;;;;;;;;;;;;10.87;34.03;99297.53;5091298;28;19931;-61
2022/03/25 09:59:38;;;;;;;;;;;;;;;10.93;33.96;99290.47;5092047;28;19924;-63
2022/03/25 10:02:04;;;;;;;;;;;;;;;10.88;33.90;99292.00;5092137;28;19935;-62
2022/03/25 10:04:36;;;;;;;;;;;;;;;10.89;34.83;99290.16;5092165;28;19924;-63
2022/03/25 10:07:03;;;;;;;;;;;;;;;10.86;35.17;99288.78;5081752;28;19928;-61
2022/03/25 10:09:29;;;;;;;;;;;;;;;10.94;34.82;99289.41;5073509;28;19943;-62
2022/03/25 10:11:55;;;;;;;;;;;;;;;10.97;34.24;99288.94;5091131;28;19928;-61
2022/03/25 10:14:25;;;;;;;;;;;;;;;10.95;35.10;99293.69;5089449;28;20282;-63
2022/03/25 10:16:52;;;;;;;;;;;;;;;10.80;34.55;99278.34;5088048;28;19928;-62
2022/03/25 10:19:18;;;;;;;;;;;;;;;10.58;34.88;99276.41;5089660;28;19955;-63
2022/03/25 10:21:49;;;;;;;;;;;;;;;10.65;34.63;99285.00;5088601;28;19932;-62
2022/03/25 10:24:18;;;;;;;;;;;;;;;10.65;35.29;99279.72;5088016;28;19924;-61
2022/03/25 10:26:44;;;;;;;;;;;;;;;10.67;34.39;99277.59;5087235;28;20303;-64
2022/03/25 10:29:21;;;;;;;;;;;;;;;10.76;34.57;99280.66;5089083;28;19931;-60
2022/03/25 10:32:02;;;;;;;;;;;;;;;10.72;34.35;99270.78;5088814;28;20423;-61
2022/03/25 10:34:28;;;;;;;;;;;;;;;10.79;34.98;99274.06;5087585;28;20060;-62
2022/03/25 10:37:00;;;;;;;;;;;;;;;10.74;34.22;99272.16;5070894;28;20619;-65
2022/03/25 10:39:26;;;;;;;;;;;;;;;10.90;34.42;99271.34;5051421;28;19925;-62
2022/03/25 10:41:56;;;;;;;;;;;;;;;11.04;34.10;99268.38;5051315;28;19932;-62
2022/03/25 10:44:29;;;;;;;;;;;;;;;11.09;34.14;99271.09;5051418;28;19924;-62
2022/03/25 10:46:54;;;;;;;;;;;;;;;11.10;34.50;99262.09;5067697;28;19929;-62
2022/03/25 10:49:20;;;;;;;;;;;;;;;11.21;34.79;99260.41;5067857;28;19924;-63
2022/03/25 10:51:56;;;;;;;;;;;;;;;11.26;34.12;99263.88;5067574;28;19928;-62
2022/03/25 10:54:22;;;;;;;;;;;;;;;11.34;34.43;99262.69;5066911;28;19924;-61
2022/03/25 10:56:48;;;;;;;;;;;;;;;11.29;34.68;99254.66;5066207;28;20569;-63
2022/03/25 10:59:26;;;;;;;;;;;;;;;11.20;34.59;99256.13;5069423;28;19925;-64
2022/03/25 11:01:53;;;;;;;;;;;;;;;11.25;34.30;99257.00;5069728;28;19935;-66
2022/03/25 11:04:19;;;;;;;;;;;;;;;11.29;34.25;99254.66;5068210;28;19968;-64
2022/03/25 11:06:45;;;;;;;;;;;;;;;11.21;33.91;99247.13;5065945;28;20476;-65
2022/03/25 11:09:10;;;;;;;;;;;;;;;10.98;34.48;99251.56;5077861;28;20309;-63
2022/03/25 11:11:40;;;;;;;;;;;;;;;10.95;34.96;99249.41;5080238;28;19940;-64
2022/03/25 11:14:06;;;;;;;;;;;;;;;10.90;34.37;99247.47;5056189;28;20393;-63
2022/03/25 11:16:31;;;;;;;;;;;;;;;10.85;34.84;99242.13;5052515;28;19978;-64
2022/03/25 11:18:57;;;;;;;;;;;;;;;10.82;34.88;99244.41;5049315;28;19981;-63
2022/03/25 11:21:22;;;;;;;;;;;;;;;10.74;35.53;99239.56;5054476;28;19980;-64
2022/03/25 11:23:49;;;;;;;;;;;;;;;10.84;35.59;99245.78;5071516;28;19947;-63
2022/03/25 11:26:16;;;;;;;;;;;;;;;10.86;35.10;99235.75;5068099;28;19981;-61
2022/03/25 11:28:42;;;;;;;;;;;;;;;10.96;34.86;99232.44;5069363;28;19925;-62
2022/03/25 11:31:08;;;;;;;;;;;;;;;11.02;35.18;99228.81;5073972;28;19980;-71
2022/03/25 11:33:56;;;;;;;;;;;;;;;11.07;35.21;99222.78;5088814;28;19923;-63
2022/03/25 11:36:24;;;;;;;;;;;;;;;11.06;34.86;99224.63;5076348;28;19935;-63
2022/03/25 11:38:53;;;;;;;;;;;;;;;11.16;34.56;99223.97;5045203;28;19924;-62
2022/03/25 11:41:23;;;;;;;;;;;;;;;11.09;35.66;99226.00;5083571;28;19935;-63
2022/03/25 11:44:25;;;;;;;;;;;;;;;10.99;35.14;99221.34;5085864;28;19923;-63
2022/03/25 11:47:00;;;;;;;;;;;;;;;10.79;35.88;99221.03;5061997;28;20051;-66
2022/03/25 11:49:26;;;;;;;;;;;;;;;10.81;36.08;99216.31;5048623;28;20031;-68
2022/03/25 11:51:51;;;;;;;;;;;;;;;10.86;36.29;99206.59;5042599;28;20079;-64
2022/03/25 11:54:36;;;;;;;;;;;;;;;10.91;35.46;99204.00;5046227;28;19933;-63
2022/03/25 11:57:03;;;;;;;;;;;;;;;10.96;35.86;99200.63;5065240;28;19985;-63
2022/03/25 11:59:48;;;;;;;;;;;;;;;10.93;35.23;99198.44;5062742;28;19925;-64
2022/03/25 12:02:30;;;;;;;;;;;;;;;10.88;36.10;99193.06;5076720;28;19928;-63
2022/03/25 12:04:57;;;;;;;;;;;;;;;10.80;35.88;99199.59;5075543;28;20454;-62
2022/03/25 12:07:22;;;;;;;;;;;;;;;10.82;36.26;99194.84;5085954;28;20400;-63
2022/03/25 12:09:47;;;;;;;;;;;;;;;10.85;36.54;99197.03;5071902;28;19974;-60
2022/03/25 12:12:13;;;;;;;;;;;;;;;10.86;36.16;99195.19;5079672;28;19924;-61
2022/03/25 12:14:57;;;;;;;;;;;;;;;10.76;36.73;99189.72;5069496;28;19925;-61
2022/03/25 12:17:24;;;;;;;;;;;;;;;10.76;36.60;99184.41;5071630;28;19920;-59
2022/03/25 12:19:54;;;;;;;;;;;;;;;10.68;36.49;99173.19;5068509;28;19928;-58
2022/03/25 12:22:19;;;;;;;;;;;;;;;10.77;36.46;99180.75;5065253;28;19924;-59
2022/03/25 12:24:45;;;;;;;;;;;;;;;10.77;36.56;99173.59;5066428;28;20405;-59
2022/03/25 12:27:11;;;;;;;;;;;;;;;10.77;36.82;99173.59;5068213;28;20305;-59
2022/03/25 12:29:40;;;;;;;;;;;;;;;10.48;36.84;99172.09;5065473;28;19929;-60
2022/03/25 12:32:09;;;;;;;;;;;;;;;10.46;37.17;99178.41;5067217;28;19928;-61
2022/03/25 12:34:54;;;;;;;;;;;;;;;10.51;37.04;99176.91;5070133;28;19970;-61
2022/03/25 12:37:22;;;;;;;;;;;;;;;10.52;37.03;99170.53;5087424;28;19973;-59
2022/03/25 12:39:47;;;;;;;;;;;;;;;10.49;36.22;99155.94;5077243;28;19936;-60
2022/03/25 12:42:13;;;;;;;;;;;;;;;10.46;36.72;99161.72;5071719;28;19924;-58
2022/03/25 12:44:38;;;;;;;;;;;;;;;10.55;37.00;99152.31;5073194;28;19936;-61
2022/03/25 12:47:04;;;;;;;;;;;;;;;10.63;37.15;99161.72;5070812;28;19974;-60
2022/03/25 12:49:30;;;;;;;;;;;;;;;10.72;36.13;99152.28;5073886;28;19924;-59
2022/03/25 12:51:56;;;;;;;;;;;;;;;10.74;36.68;99152.84;5072771;28;20006;-61
2022/03/25 12:54:22;;;;;;;;;;;;;;;10.77;36.47;99151.56;5074575;28;19924;-61
2022/03/25 12:56:55;;;;;;;;;;;;;;;10.73;36.13;99153.88;5055111;28;19939;-61